sensor_id;sensor_type;location;lat;lon;timestamp;P1;durP1;ratioP1;P2;durP2;ratioP2
51286;SDS011;37364;46.974;18.916;2022-11-25T00:00:02;35.63;;;28.65;;
51286;SDS011;37364;46.974;18.916;2022-11-25T00:02:41;38.47;;;30.67;;
51286;SDS011;37364;46.974;18.916;2022-11-25T00:05:15;38.47;;;31.15;;
51286;SDS011;37364;46.974;18.916;2022-11-25T00:07:46;34.80;;;26.70;;
51286;SDS011;37364;46.974;18.916;2022-11-25T00:10:17;36.22;;;28.13;;
51286;SDS011;37364;46.974;18.916;2022-11-25T00:12:50;33.08;;;26.60;;
51286;SDS011;37364;46.974;18.916;2022-11-25T00:15:25;32.00;;;24.25;;
51286;SDS011;37364;46.974;18.916;2022-11-25T00:17:57;33.38;;;24.58;;
51286;SDS011;37364;46.974;18.916;2022-11-25T00:20:30;56.25;;;38.95;;
51286;SDS011;37364;46.974;18.916;2022-11-25T00:23:02;37.63;;;28.98;;
51286;SDS011;37364;46.974;18.916;2022-11-25T00:25:35;36.72;;;25.00;;
51286;SDS011;37364;46.974;18.916;2022-11-25T00:28:13;30.63;;;23.92;;
51286;SDS011;37364;46.974;18.916;2022-11-25T00:30:48;27.92;;;19.25;;
51286;SDS011;37364;46.974;18.916;2022-11-25T00:33:21;27.48;;;22.73;;
51286;SDS011;37364;46.974;18.916;2022-11-25T00:35:52;33.38;;;25.20;;
51286;SDS011;37364;46.974;18.916;2022-11-25T00:38:23;29.83;;;24.55;;
51286;SDS011;37364;46.974;18.916;2022-11-25T00:40:54;30.42;;;24.40;;
51286;SDS011;37364;46.974;18.916;2022-11-25T00:43:37;31.38;;;22.95;;
51286;SDS011;37364;46.974;18.916;2022-11-25T00:46:26;34.88;;;24.08;;
51286;SDS011;37364;46.974;18.916;2022-11-25T00:48:57;36.95;;;26.83;;
51286;SDS011;37364;46.974;18.916;2022-11-25T00:51:29;31.52;;;24.00;;
51286;SDS011;37364;46.974;18.916;2022-11-25T00:54:05;27.75;;;23.00;;
51286;SDS011;37364;46.974;18.916;2022-11-25T00:56:37;31.52;;;24.25;;
51286;SDS011;37364;46.974;18.916;2022-11-25T00:59:09;32.67;;;25.55;;
51286;SDS011;37364;46.974;18.916;2022-11-25T01:01:46;32.17;;;23.90;;
51286;SDS011;37364;46.974;18.916;2022-11-25T01:04:17;37.97;;;24.98;;
51286;SDS011;37364;46.974;18.916;2022-11-25T01:06:49;37.67;;;24.95;;
51286;SDS011;37364;46.974;18.916;2022-11-25T01:09:20;35.13;;;24.23;;
51286;SDS011;37364;46.974;18.916;2022-11-25T01:14:25;31.05;;;24.88;;
51286;SDS011;37364;46.974;18.916;2022-11-25T01:17:03;40.20;;;26.17;;
51286;SDS011;37364;46.974;18.916;2022-11-25T01:19:34;37.65;;;26.13;;
51286;SDS011;37364;46.974;18.916;2022-11-25T01:22:08;36.40;;;25.30;;
51286;SDS011;37364;46.974;18.916;2022-11-25T01:24:41;31.65;;;25.05;;
51286;SDS011;37364;46.974;18.916;2022-11-25T01:27:13;34.35;;;26.30;;
51286;SDS011;37364;46.974;18.916;2022-11-25T01:29:44;40.75;;;26.98;;
51286;SDS011;37364;46.974;18.916;2022-11-25T01:32:18;35.45;;;28.05;;
51286;SDS011;37364;46.974;18.916;2022-11-25T01:34:49;38.83;;;26.80;;
51286;SDS011;37364;46.974;18.916;2022-11-25T01:37:21;36.25;;;29.05;;
51286;SDS011;37364;46.974;18.916;2022-11-25T01:39:52;39.83;;;29.00;;
51286;SDS011;37364;46.974;18.916;2022-11-25T01:42:26;35.30;;;28.90;;
51286;SDS011;37364;46.974;18.916;2022-11-25T01:51:43;35.33;;;28.63;;
51286;SDS011;37364;46.974;18.916;2022-11-25T01:54:37;39.55;;;30.15;;
51286;SDS011;37364;46.974;18.916;2022-11-25T01:57:15;36.38;;;30.05;;
51286;SDS011;37364;46.974;18.916;2022-11-25T01:59:52;36.10;;;28.45;;
51286;SDS011;37364;46.974;18.916;2022-11-25T02:02:51;44.85;;;29.17;;
51286;SDS011;37364;46.974;18.916;2022-11-25T02:05:34;46.85;;;29.98;;
51286;SDS011;37364;46.974;18.916;2022-11-25T02:08:12;36.38;;;28.67;;
51286;SDS011;37364;46.974;18.916;2022-11-25T02:10:52;43.58;;;29.27;;
51286;SDS011;37364;46.974;18.916;2022-11-25T02:13:24;43.67;;;31.15;;
51286;SDS011;37364;46.974;18.916;2022-11-25T02:15:56;46.88;;;33.83;;
51286;SDS011;37364;46.974;18.916;2022-11-25T02:18:32;44.42;;;32.20;;
51286;SDS011;37364;46.974;18.916;2022-11-25T02:21:10;45.10;;;31.70;;
51286;SDS011;37364;46.974;18.916;2022-11-25T02:23:46;47.20;;;34.85;;
51286;SDS011;37364;46.974;18.916;2022-11-25T02:26:25;44.58;;;32.08;;
51286;SDS011;37364;46.974;18.916;2022-11-25T02:31:29;52.47;;;30.73;;
51286;SDS011;37364;46.974;18.916;2022-11-25T02:34:00;47.47;;;32.75;;
51286;SDS011;37364;46.974;18.916;2022-11-25T02:36:33;40.90;;;32.80;;
51286;SDS011;37364;46.974;18.916;2022-11-25T02:39:04;42.03;;;32.10;;
51286;SDS011;37364;46.974;18.916;2022-11-25T02:41:40;51.47;;;32.33;;
51286;SDS011;37364;46.974;18.916;2022-11-25T02:44:16;43.33;;;33.20;;
51286;SDS011;37364;46.974;18.916;2022-11-25T02:46:47;48.97;;;36.22;;
51286;SDS011;37364;46.974;18.916;2022-11-25T02:49:19;43.15;;;32.85;;
51286;SDS011;37364;46.974;18.916;2022-11-25T02:51:50;45.53;;;35.33;;
51286;SDS011;37364;46.974;18.916;2022-11-25T02:54:22;48.10;;;34.35;;
51286;SDS011;37364;46.974;18.916;2022-11-25T02:56:56;53.67;;;37.50;;
51286;SDS011;37364;46.974;18.916;2022-11-25T02:59:28;55.58;;;37.80;;
51286;SDS011;37364;46.974;18.916;2022-11-25T03:02:00;65.38;;;40.05;;
51286;SDS011;37364;46.974;18.916;2022-11-25T03:04:32;56.25;;;39.92;;
51286;SDS011;37364;46.974;18.916;2022-11-25T03:07:05;64.72;;;47.50;;
51286;SDS011;37364;46.974;18.916;2022-11-25T03:09:35;67.20;;;49.58;;
51286;SDS011;37364;46.974;18.916;2022-11-25T03:12:15;108.65;;;64.97;;
51286;SDS011;37364;46.974;18.916;2022-11-25T03:14:51;88.85;;;52.95;;
51286;SDS011;37364;46.974;18.916;2022-11-25T03:17:25;81.97;;;55.33;;
51286;SDS011;37364;46.974;18.916;2022-11-25T03:19:56;86.93;;;50.97;;
51286;SDS011;37364;46.974;18.916;2022-11-25T03:22:32;68.70;;;47.50;;
51286;SDS011;37364;46.974;18.916;2022-11-25T03:25:08;80.40;;;51.38;;
51286;SDS011;37364;46.974;18.916;2022-11-25T03:27:43;74.20;;;48.45;;
51286;SDS011;37364;46.974;18.916;2022-11-25T03:30:16;79.05;;;48.72;;
51286;SDS011;37364;46.974;18.916;2022-11-25T03:32:50;70.75;;;46.13;;
51286;SDS011;37364;46.974;18.916;2022-11-25T03:35:26;64.47;;;43.13;;
51286;SDS011;37364;46.974;18.916;2022-11-25T03:38:02;63.28;;;44.22;;
51286;SDS011;37364;46.974;18.916;2022-11-25T03:40:36;54.10;;;38.22;;
51286;SDS011;37364;46.974;18.916;2022-11-25T03:43:13;62.75;;;41.15;;
51286;SDS011;37364;46.974;18.916;2022-11-25T03:45:47;52.60;;;37.15;;
51286;SDS011;37364;46.974;18.916;2022-11-25T03:48:19;45.80;;;34.28;;
51286;SDS011;37364;46.974;18.916;2022-11-25T03:50:55;44.05;;;34.17;;
51286;SDS011;37364;46.974;18.916;2022-11-25T03:53:29;48.75;;;34.83;;
51286;SDS011;37364;46.974;18.916;2022-11-25T03:56:04;45.25;;;34.33;;
51286;SDS011;37364;46.974;18.916;2022-11-25T03:58:39;45.17;;;33.97;;
51286;SDS011;37364;46.974;18.916;2022-11-25T04:01:11;61.83;;;35.20;;
51286;SDS011;37364;46.974;18.916;2022-11-25T04:03:45;53.25;;;35.42;;
51286;SDS011;37364;46.974;18.916;2022-11-25T04:06:17;48.83;;;37.40;;
51286;SDS011;37364;46.974;18.916;2022-11-25T04:08:54;50.30;;;35.95;;
51286;SDS011;37364;46.974;18.916;2022-11-25T04:11:25;49.30;;;35.42;;
51286;SDS011;37364;46.974;18.916;2022-11-25T04:14:25;63.40;;;39.10;;
51286;SDS011;37364;46.974;18.916;2022-11-25T04:16:53;58.25;;;40.33;;
51286;SDS011;37364;46.974;18.916;2022-11-25T04:19:25;59.20;;;40.97;;
51286;SDS011;37364;46.974;18.916;2022-11-25T04:21:57;63.83;;;38.50;;
51286;SDS011;37364;46.974;18.916;2022-11-25T04:24:31;61.88;;;40.25;;
51286;SDS011;37364;46.974;18.916;2022-11-25T04:27:04;56.75;;;38.45;;
51286;SDS011;37364;46.974;18.916;2022-11-25T04:29:41;51.53;;;36.35;;
51286;SDS011;37364;46.974;18.916;2022-11-25T04:32:15;55.05;;;37.17;;
51286;SDS011;37364;46.974;18.916;2022-11-25T04:34:50;54.13;;;37.13;;
51286;SDS011;37364;46.974;18.916;2022-11-25T04:37:24;81.20;;;51.13;;
51286;SDS011;37364;46.974;18.916;2022-11-25T04:40:04;88.90;;;55.67;;
51286;SDS011;37364;46.974;18.916;2022-11-25T04:45:20;93.85;;;57.53;;
51286;SDS011;37364;46.974;18.916;2022-11-25T04:48:17;88.20;;;53.67;;
51286;SDS011;37364;46.974;18.916;2022-11-25T04:50:50;92.45;;;57.53;;
51286;SDS011;37364;46.974;18.916;2022-11-25T04:53:26;90.55;;;54.08;;
51286;SDS011;37364;46.974;18.916;2022-11-25T04:55:59;92.05;;;54.35;;
51286;SDS011;37364;46.974;18.916;2022-11-25T04:58:41;85.72;;;52.95;;
51286;SDS011;37364;46.974;18.916;2022-11-25T05:01:29;90.28;;;51.75;;
51286;SDS011;37364;46.974;18.916;2022-11-25T05:04:24;84.70;;;51.75;;
51286;SDS011;37364;46.974;18.916;2022-11-25T05:07:03;80.70;;;49.45;;
51286;SDS011;37364;46.974;18.916;2022-11-25T05:09:37;72.57;;;47.95;;
51286;SDS011;37364;46.974;18.916;2022-11-25T05:12:29;77.32;;;50.97;;
51286;SDS011;37364;46.974;18.916;2022-11-25T05:15:14;73.13;;;48.97;;
51286;SDS011;37364;46.974;18.916;2022-11-25T05:17:57;80.90;;;48.53;;
51286;SDS011;37364;46.974;18.916;2022-11-25T05:21:00;73.60;;;47.22;;
51286;SDS011;37364;46.974;18.916;2022-11-25T05:23:37;87.68;;;53.05;;
51286;SDS011;37364;46.974;18.916;2022-11-25T05:26:22;84.40;;;48.67;;
51286;SDS011;37364;46.974;18.916;2022-11-25T05:28:56;72.68;;;47.40;;
51286;SDS011;37364;46.974;18.916;2022-11-25T05:31:32;67.85;;;45.67;;
51286;SDS011;37364;46.974;18.916;2022-11-25T05:34:18;66.68;;;44.15;;
51286;SDS011;37364;46.974;18.916;2022-11-25T05:36:54;64.47;;;44.42;;
51286;SDS011;37364;46.974;18.916;2022-11-25T05:39:30;74.95;;;46.75;;
51286;SDS011;37364;46.974;18.916;2022-11-25T05:42:34;74.97;;;48.45;;
51286;SDS011;37364;46.974;18.916;2022-11-25T05:45:12;76.00;;;51.03;;
51286;SDS011;37364;46.974;18.916;2022-11-25T05:50:27;74.72;;;46.80;;
51286;SDS011;37364;46.974;18.916;2022-11-25T05:53:21;93.60;;;55.08;;
51286;SDS011;37364;46.974;18.916;2022-11-25T05:55:57;82.97;;;54.50;;
51286;SDS011;37364;46.974;18.916;2022-11-25T05:58:52;84.97;;;51.28;;
51286;SDS011;37364;46.974;18.916;2022-11-25T06:01:36;93.68;;;52.80;;
51286;SDS011;37364;46.974;18.916;2022-11-25T06:04:08;78.88;;;50.80;;
51286;SDS011;37364;46.974;18.916;2022-11-25T06:06:52;77.47;;;50.45;;
51286;SDS011;37364;46.974;18.916;2022-11-25T06:09:23;72.63;;;47.92;;
51286;SDS011;37364;46.974;18.916;2022-11-25T06:12:03;75.22;;;48.10;;
51286;SDS011;37364;46.974;18.916;2022-11-25T06:14:41;76.95;;;45.97;;
51286;SDS011;37364;46.974;18.916;2022-11-25T06:17:16;78.20;;;49.25;;
51286;SDS011;37364;46.974;18.916;2022-11-25T06:19:53;72.82;;;45.75;;
51286;SDS011;37364;46.974;18.916;2022-11-25T06:22:39;78.35;;;46.47;;
51286;SDS011;37364;46.974;18.916;2022-11-25T06:25:20;67.22;;;46.97;;
51286;SDS011;37364;46.974;18.916;2022-11-25T06:28:02;75.95;;;49.72;;
51286;SDS011;37364;46.974;18.916;2022-11-25T06:30:44;71.03;;;46.90;;
51286;SDS011;37364;46.974;18.916;2022-11-25T06:33:24;75.82;;;49.30;;
51286;SDS011;37364;46.974;18.916;2022-11-25T06:36:03;82.55;;;54.05;;
51286;SDS011;37364;46.974;18.916;2022-11-25T06:38:45;84.32;;;53.22;;
51286;SDS011;37364;46.974;18.916;2022-11-25T06:41:20;92.97;;;57.97;;
51286;SDS011;37364;46.974;18.916;2022-11-25T06:43:52;95.10;;;60.10;;
51286;SDS011;37364;46.974;18.916;2022-11-25T06:46:23;103.15;;;57.63;;
51286;SDS011;37364;46.974;18.916;2022-11-25T06:48:54;83.55;;;56.78;;
51286;SDS011;37364;46.974;18.916;2022-11-25T06:51:28;104.80;;;60.25;;
51286;SDS011;37364;46.974;18.916;2022-11-25T06:54:02;109.03;;;67.28;;
51286;SDS011;37364;46.974;18.916;2022-11-25T06:56:39;104.93;;;61.17;;
51286;SDS011;37364;46.974;18.916;2022-11-25T06:59:10;102.22;;;60.03;;
51286;SDS011;37364;46.974;18.916;2022-11-25T07:01:43;106.40;;;60.00;;
51286;SDS011;37364;46.974;18.916;2022-11-25T07:04:13;95.15;;;57.80;;
51286;SDS011;37364;46.974;18.916;2022-11-25T07:06:45;92.10;;;55.42;;
51286;SDS011;37364;46.974;18.916;2022-11-25T07:09:21;92.47;;;56.90;;
51286;SDS011;37364;46.974;18.916;2022-11-25T07:11:53;98.13;;;55.53;;
51286;SDS011;37364;46.974;18.916;2022-11-25T07:14:24;96.25;;;56.17;;
51286;SDS011;37364;46.974;18.916;2022-11-25T07:16:56;97.07;;;56.78;;
51286;SDS011;37364;46.974;18.916;2022-11-25T07:19:27;131.93;;;73.30;;
51286;SDS011;37364;46.974;18.916;2022-11-25T07:24:34;123.00;;;68.22;;
51286;SDS011;37364;46.974;18.916;2022-11-25T07:29:36;180.55;;;98.40;;
51286;SDS011;37364;46.974;18.916;2022-11-25T07:32:27;339.13;;;185.05;;
51286;SDS011;37364;46.974;18.916;2022-11-25T07:35:01;297.50;;;166.80;;
51286;SDS011;37364;46.974;18.916;2022-11-25T07:37:32;229.40;;;122.50;;
51286;SDS011;37364;46.974;18.916;2022-11-25T07:40:07;205.25;;;107.97;;
51286;SDS011;37364;46.974;18.916;2022-11-25T07:42:38;265.30;;;142.48;;
51286;SDS011;37364;46.974;18.916;2022-11-25T07:45:09;162.02;;;88.32;;
51286;SDS011;37364;46.974;18.916;2022-11-25T07:47:44;288.52;;;166.35;;
51286;SDS011;37364;46.974;18.916;2022-11-25T07:50:15;186.50;;;98.25;;
51286;SDS011;37364;46.974;18.916;2022-11-25T07:52:48;198.70;;;112.18;;
51286;SDS011;37364;46.974;18.916;2022-11-25T07:55:23;353.45;;;210.63;;
51286;SDS011;37364;46.974;18.916;2022-11-25T07:57:55;185.27;;;104.18;;
51286;SDS011;37364;46.974;18.916;2022-11-25T08:00:28;123.07;;;74.68;;
51286;SDS011;37364;46.974;18.916;2022-11-25T08:03:00;128.30;;;81.82;;
51286;SDS011;37364;46.974;18.916;2022-11-25T08:05:31;250.52;;;148.88;;
51286;SDS011;37364;46.974;18.916;2022-11-25T08:08:04;262.45;;;162.02;;
51286;SDS011;37364;46.974;18.916;2022-11-25T08:10:44;298.33;;;173.02;;
51286;SDS011;37364;46.974;18.916;2022-11-25T08:13:17;143.80;;;79.55;;
51286;SDS011;37364;46.974;18.916;2022-11-25T08:15:49;103.05;;;62.22;;
51286;SDS011;37364;46.974;18.916;2022-11-25T08:18:20;112.65;;;68.07;;
51286;SDS011;37364;46.974;18.916;2022-11-25T08:20:57;137.57;;;82.50;;
51286;SDS011;37364;46.974;18.916;2022-11-25T08:23:28;114.20;;;69.15;;
51286;SDS011;37364;46.974;18.916;2022-11-25T08:26:04;138.27;;;86.18;;
51286;SDS011;37364;46.974;18.916;2022-11-25T08:28:36;94.65;;;58.75;;
51286;SDS011;37364;46.974;18.916;2022-11-25T08:31:09;103.05;;;67.18;;
51286;SDS011;37364;46.974;18.916;2022-11-25T08:33:40;129.40;;;87.82;;
51286;SDS011;37364;46.974;18.916;2022-11-25T08:36:11;97.25;;;64.55;;
51286;SDS011;37364;46.974;18.916;2022-11-25T08:41:21;111.50;;;71.20;;
51286;SDS011;37364;46.974;18.916;2022-11-25T08:43:54;75.85;;;49.75;;
51286;SDS011;37364;46.974;18.916;2022-11-25T08:46:29;77.93;;;48.65;;
51286;SDS011;37364;46.974;18.916;2022-11-25T08:49:05;95.32;;;58.70;;
51286;SDS011;37364;46.974;18.916;2022-11-25T08:51:38;76.43;;;51.22;;
51286;SDS011;37364;46.974;18.916;2022-11-25T08:54:11;65.97;;;44.08;;
51286;SDS011;37364;46.974;18.916;2022-11-25T08:56:47;60.58;;;44.10;;
51286;SDS011;37364;46.974;18.916;2022-11-25T08:59:17;63.58;;;42.08;;
51286;SDS011;37364;46.974;18.916;2022-11-25T09:01:57;60.65;;;38.58;;
51286;SDS011;37364;46.974;18.916;2022-11-25T09:04:28;75.60;;;46.55;;
51286;SDS011;37364;46.974;18.916;2022-11-25T09:07:04;66.97;;;42.63;;
51286;SDS011;37364;46.974;18.916;2022-11-25T09:09:35;51.10;;;35.75;;
51286;SDS011;37364;46.974;18.916;2022-11-25T09:12:11;51.00;;;35.47;;
51286;SDS011;37364;46.974;18.916;2022-11-25T09:14:44;53.38;;;35.50;;
51286;SDS011;37364;46.974;18.916;2022-11-25T09:17:16;47.30;;;32.72;;
51286;SDS011;37364;46.974;18.916;2022-11-25T09:19:47;49.25;;;36.00;;
51286;SDS011;37364;46.974;18.916;2022-11-25T09:22:18;44.70;;;33.53;;
51286;SDS011;37364;46.974;18.916;2022-11-25T09:24:49;45.22;;;33.97;;
51286;SDS011;37364;46.974;18.916;2022-11-25T09:27:23;43.95;;;31.33;;
51286;SDS011;37364;46.974;18.916;2022-11-25T09:29:54;42.47;;;29.92;;
51286;SDS011;37364;46.974;18.916;2022-11-25T09:32:25;36.97;;;28.75;;
51286;SDS011;37364;46.974;18.916;2022-11-25T09:34:57;45.42;;;29.15;;
51286;SDS011;37364;46.974;18.916;2022-11-25T09:37:29;39.47;;;27.60;;
51286;SDS011;37364;46.974;18.916;2022-11-25T09:40:06;44.85;;;27.67;;
51286;SDS011;37364;46.974;18.916;2022-11-25T09:42:50;39.95;;;29.65;;
51286;SDS011;37364;46.974;18.916;2022-11-25T09:45:41;49.08;;;30.02;;
51286;SDS011;37364;46.974;18.916;2022-11-25T09:48:37;44.92;;;31.33;;
51286;SDS011;37364;46.974;18.916;2022-11-25T09:51:21;47.22;;;34.15;;
51286;SDS011;37364;46.974;18.916;2022-11-25T09:54:02;48.03;;;32.42;;
51286;SDS011;37364;46.974;18.916;2022-11-25T09:56:44;50.38;;;35.42;;
51286;SDS011;37364;46.974;18.916;2022-11-25T09:59:24;42.80;;;31.20;;
51286;SDS011;37364;46.974;18.916;2022-11-25T10:02:02;40.20;;;29.40;;
51286;SDS011;37364;46.974;18.916;2022-11-25T10:04:43;41.10;;;29.52;;
51286;SDS011;37364;46.974;18.916;2022-11-25T10:07:24;40.70;;;28.98;;
51286;SDS011;37364;46.974;18.916;2022-11-25T10:09:59;43.80;;;28.65;;
51286;SDS011;37364;46.974;18.916;2022-11-25T10:12:37;39.75;;;27.30;;
51286;SDS011;37364;46.974;18.916;2022-11-25T10:15:15;39.45;;;28.20;;
51286;SDS011;37364;46.974;18.916;2022-11-25T10:17:50;35.58;;;24.58;;
51286;SDS011;37364;46.974;18.916;2022-11-25T10:20:23;38.05;;;27.25;;
51286;SDS011;37364;46.974;18.916;2022-11-25T10:22:59;42.58;;;27.75;;
51286;SDS011;37364;46.974;18.916;2022-11-25T10:25:33;41.38;;;27.00;;
51286;SDS011;37364;46.974;18.916;2022-11-25T10:28:12;38.90;;;27.40;;
51286;SDS011;37364;46.974;18.916;2022-11-25T10:30:49;47.28;;;29.20;;
51286;SDS011;37364;46.974;18.916;2022-11-25T10:33:32;69.00;;;45.05;;
51286;SDS011;37364;46.974;18.916;2022-11-25T10:36:09;45.80;;;31.20;;
51286;SDS011;37364;46.974;18.916;2022-11-25T10:38:46;42.28;;;26.50;;
51286;SDS011;37364;46.974;18.916;2022-11-25T10:41:25;40.10;;;26.52;;
51286;SDS011;37364;46.974;18.916;2022-11-25T10:44:02;37.78;;;25.38;;
51286;SDS011;37364;46.974;18.916;2022-11-25T10:46:39;43.08;;;26.15;;
51286;SDS011;37364;46.974;18.916;2022-11-25T10:49:41;34.47;;;23.13;;
51286;SDS011;37364;46.974;18.916;2022-11-25T10:52:21;37.55;;;24.08;;
51286;SDS011;37364;46.974;18.916;2022-11-25T10:54:56;41.15;;;25.70;;
51286;SDS011;37364;46.974;18.916;2022-11-25T10:57:38;26.70;;;21.08;;
51286;SDS011;37364;46.974;18.916;2022-11-25T11:00:23;36.20;;;21.52;;
51286;SDS011;37364;46.974;18.916;2022-11-25T11:03:14;44.83;;;19.30;;
51286;SDS011;37364;46.974;18.916;2022-11-25T11:05:55;46.90;;;20.80;;
51286;SDS011;37364;46.974;18.916;2022-11-25T11:08:27;34.72;;;22.08;;
51286;SDS011;37364;46.974;18.916;2022-11-25T11:11:12;32.55;;;20.83;;
51286;SDS011;37364;46.974;18.916;2022-11-25T11:13:46;31.50;;;26.33;;
51286;SDS011;37364;46.974;18.916;2022-11-25T11:16:25;43.20;;;32.58;;
51286;SDS011;37364;46.974;18.916;2022-11-25T11:19:05;46.78;;;31.63;;
51286;SDS011;37364;46.974;18.916;2022-11-25T11:21:50;30.77;;;22.52;;
51286;SDS011;37364;46.974;18.916;2022-11-25T11:24:26;40.08;;;28.98;;
51286;SDS011;37364;46.974;18.916;2022-11-25T11:27:19;43.65;;;30.13;;
51286;SDS011;37364;46.974;18.916;2022-11-25T11:29:54;38.58;;;28.40;;
51286;SDS011;37364;46.974;18.916;2022-11-25T11:32:53;38.75;;;24.67;;
51286;SDS011;37364;46.974;18.916;2022-11-25T11:35:32;44.97;;;28.73;;
51286;SDS011;37364;46.974;18.916;2022-11-25T11:38:20;56.58;;;35.63;;
51286;SDS011;37364;46.974;18.916;2022-11-25T11:41:07;39.72;;;29.08;;
51286;SDS011;37364;46.974;18.916;2022-11-25T11:43:55;36.50;;;24.50;;
51286;SDS011;37364;46.974;18.916;2022-11-25T11:46:41;41.80;;;25.67;;
51286;SDS011;37364;46.974;18.916;2022-11-25T11:49:30;34.42;;;24.17;;
51286;SDS011;37364;46.974;18.916;2022-11-25T11:52:18;38.95;;;24.75;;
51286;SDS011;37364;46.974;18.916;2022-11-25T11:55:11;45.78;;;24.02;;
51286;SDS011;37364;46.974;18.916;2022-11-25T11:57:57;39.92;;;22.10;;
51286;SDS011;37364;46.974;18.916;2022-11-25T12:00:41;29.13;;;23.08;;
51286;SDS011;37364;46.974;18.916;2022-11-25T12:03:20;36.63;;;21.83;;
51286;SDS011;37364;46.974;18.916;2022-11-25T12:05:55;30.85;;;22.48;;
51286;SDS011;37364;46.974;18.916;2022-11-25T12:08:37;29.15;;;21.00;;
51286;SDS011;37364;46.974;18.916;2022-11-25T12:11:17;48.00;;;22.45;;
51286;SDS011;37364;46.974;18.916;2022-11-25T12:13:53;33.92;;;19.73;;
51286;SDS011;37364;46.974;18.916;2022-11-25T12:16:33;24.98;;;18.38;;
51286;SDS011;37364;46.974;18.916;2022-11-25T12:19:13;29.08;;;21.60;;
51286;SDS011;37364;46.974;18.916;2022-11-25T12:21:54;37.72;;;32.00;;
51286;SDS011;37364;46.974;18.916;2022-11-25T12:24:41;36.47;;;29.60;;
51286;SDS011;37364;46.974;18.916;2022-11-25T12:27:21;39.90;;;31.73;;
51286;SDS011;37364;46.974;18.916;2022-11-25T12:29:57;32.25;;;21.33;;
51286;SDS011;37364;46.974;18.916;2022-11-25T12:32:55;35.63;;;21.90;;
51286;SDS011;37364;46.974;18.916;2022-11-25T12:35:42;37.47;;;28.67;;
51286;SDS011;37364;46.974;18.916;2022-11-25T12:38:26;25.85;;;19.67;;
51286;SDS011;37364;46.974;18.916;2022-11-25T12:43:59;49.92;;;29.25;;
51286;SDS011;37364;46.974;18.916;2022-11-25T12:46:35;80.80;;;41.80;;
51286;SDS011;37364;46.974;18.916;2022-11-25T12:49:13;33.20;;;19.67;;
51286;SDS011;37364;46.974;18.916;2022-11-25T12:51:52;27.48;;;19.77;;
51286;SDS011;37364;46.974;18.916;2022-11-25T12:54:43;33.17;;;20.73;;
51286;SDS011;37364;46.974;18.916;2022-11-25T12:57:36;50.75;;;29.60;;
51286;SDS011;37364;46.974;18.916;2022-11-25T13:00:26;28.48;;;22.65;;
51286;SDS011;37364;46.974;18.916;2022-11-25T13:03:21;32.55;;;20.27;;
51286;SDS011;37364;46.974;18.916;2022-11-25T13:06:15;28.77;;;17.15;;
51286;SDS011;37364;46.974;18.916;2022-11-25T13:09:01;32.08;;;20.10;;
51286;SDS011;37364;46.974;18.916;2022-11-25T13:11:47;65.15;;;41.50;;
51286;SDS011;37364;46.974;18.916;2022-11-25T13:14:38;21.60;;;15.23;;
51286;SDS011;37364;46.974;18.916;2022-11-25T13:17:25;70.15;;;43.10;;
51286;SDS011;37364;46.974;18.916;2022-11-25T13:22:42;27.48;;;19.13;;
51286;SDS011;37364;46.974;18.916;2022-11-25T13:25:20;26.10;;;17.50;;
51286;SDS011;37364;46.974;18.916;2022-11-25T13:27:55;32.08;;;17.92;;
51286;SDS011;37364;46.974;18.916;2022-11-25T13:30:41;30.40;;;19.15;;
51286;SDS011;37364;46.974;18.916;2022-11-25T13:36:17;21.33;;;16.02;;
51286;SDS011;37364;46.974;18.916;2022-11-25T13:38:56;23.13;;;16.13;;
51286;SDS011;37364;46.974;18.916;2022-11-25T13:41:36;23.90;;;15.52;;
51286;SDS011;37364;46.974;18.916;2022-11-25T13:44:18;24.73;;;16.60;;
51286;SDS011;37364;46.974;18.916;2022-11-25T13:46:57;25.30;;;15.82;;
51286;SDS011;37364;46.974;18.916;2022-11-25T13:49:33;23.80;;;15.98;;
51286;SDS011;37364;46.974;18.916;2022-11-25T13:58:19;23.23;;;15.20;;
51286;SDS011;37364;46.974;18.916;2022-11-25T14:01:19;20.23;;;15.20;;
51286;SDS011;37364;46.974;18.916;2022-11-25T14:04:00;30.58;;;15.52;;
51286;SDS011;37364;46.974;18.916;2022-11-25T14:06:41;21.73;;;15.85;;
51286;SDS011;37364;46.974;18.916;2022-11-25T14:09:36;23.85;;;14.52;;
51286;SDS011;37364;46.974;18.916;2022-11-25T14:12:18;27.23;;;15.40;;
51286;SDS011;37364;46.974;18.916;2022-11-25T14:21:38;175.00;;;118.00;;
51286;SDS011;37364;46.974;18.916;2022-11-25T14:24:27;38.30;;;26.02;;
51286;SDS011;37364;46.974;18.916;2022-11-25T14:27:04;210.18;;;132.85;;
51286;SDS011;37364;46.974;18.916;2022-11-25T14:29:50;126.90;;;77.88;;
51286;SDS011;37364;46.974;18.916;2022-11-25T14:32:26;93.47;;;54.92;;
51286;SDS011;37364;46.974;18.916;2022-11-25T14:35:05;49.72;;;29.50;;
51286;SDS011;37364;46.974;18.916;2022-11-25T14:37:44;54.45;;;35.03;;
51286;SDS011;37364;46.974;18.916;2022-11-25T14:40:19;40.80;;;24.55;;
51286;SDS011;37364;46.974;18.916;2022-11-25T14:42:57;35.13;;;19.45;;
51286;SDS011;37364;46.974;18.916;2022-11-25T14:45:35;28.98;;;21.88;;
51286;SDS011;37364;46.974;18.916;2022-11-25T14:48:16;29.27;;;15.57;;
51286;SDS011;37364;46.974;18.916;2022-11-25T14:50:55;23.65;;;16.95;;
51286;SDS011;37364;46.974;18.916;2022-11-25T14:53:36;21.20;;;15.65;;
51286;SDS011;37364;46.974;18.916;2022-11-25T14:56:16;25.45;;;15.98;;
51286;SDS011;37364;46.974;18.916;2022-11-25T14:58:53;24.25;;;14.88;;
51286;SDS011;37364;46.974;18.916;2022-11-25T15:01:28;40.15;;;20.10;;
51286;SDS011;37364;46.974;18.916;2022-11-25T15:06:36;55.50;;;22.83;;
51286;SDS011;37364;46.974;18.916;2022-11-25T15:09:21;26.80;;;18.85;;
51286;SDS011;37364;46.974;18.916;2022-11-25T15:11:59;26.33;;;16.30;;
51286;SDS011;37364;46.974;18.916;2022-11-25T15:14:34;29.60;;;17.67;;
51286;SDS011;37364;46.974;18.916;2022-11-25T15:17:15;25.52;;;17.15;;
51286;SDS011;37364;46.974;18.916;2022-11-25T15:19:54;41.10;;;19.58;;
51286;SDS011;37364;46.974;18.916;2022-11-25T15:22:27;25.42;;;16.55;;
51286;SDS011;37364;46.974;18.916;2022-11-25T15:25:08;29.70;;;16.30;;
51286;SDS011;37364;46.974;18.916;2022-11-25T15:27:48;24.50;;;16.30;;
51286;SDS011;37364;46.974;18.916;2022-11-25T15:30:23;23.20;;;15.60;;
51286;SDS011;37364;46.974;18.916;2022-11-25T15:32:59;28.05;;;16.80;;
51286;SDS011;37364;46.974;18.916;2022-11-25T15:35:31;27.30;;;16.48;;
51286;SDS011;37364;46.974;18.916;2022-11-25T15:38:15;24.88;;;16.10;;
51286;SDS011;37364;46.974;18.916;2022-11-25T15:40:58;27.67;;;17.00;;
51286;SDS011;37364;46.974;18.916;2022-11-25T15:43:30;19.40;;;15.77;;
51286;SDS011;37364;46.974;18.916;2022-11-25T15:46:06;39.65;;;23.30;;
51286;SDS011;37364;46.974;18.916;2022-11-25T15:48:43;33.42;;;18.85;;
51286;SDS011;37364;46.974;18.916;2022-11-25T15:51:20;31.42;;;19.05;;
51286;SDS011;37364;46.974;18.916;2022-11-25T15:54:03;29.48;;;18.70;;